メインページ
METAR-TAF:

METAR-TAF

空港 :

マッカラン国際空港

ラスベガス, ネバダ州, アメリカ合衆国

緯度: 36-04-44N, 経度: 115-09-19W, 海抜: 663m

現時点の気象観測

当レポートは47分前の08:56(UTC)に作成
の風 3kt
気温 24°C
湿度 27%
気圧 1009 hPa
視程: 16.1km
高度12000ftの雲はほとんどない
高度22000ftの雲はほとんどない

METAR: KLAS 200856Z 19003KT 10SM FEW120 FEW220 24/04 A2979 RMK AO2 SLP061 T02390039 50001

時間: 02:43 (09:43 UTC)

予報

当レポートは57分前の08:46(UTC)に作成
予報は20日の 09時(UTC)から 21日の 12時(UTC)まで有効
変向風 5kt
視程: 10km
高度25000ftの雲はほとんどない
20日の 1000時(UTC)から
南/南西の風 6kt
視程: 10km
高度25000ftの雲はほとんどない
20日の 1700時(UTC)から
の風 11kt
視程: 10km
高度25000ftの雲は散在している
20日の 1900時(UTC)から
の風 15kt、最大23ktの突風を伴う
視程: 10km
高度12000ftの雲はほとんどない
高度25000ftの雲は散在している
21日の 0500時(UTC)から
南西の風 11kt
視程: 10km
高度15000ftの雲は散在している
高度25000ftの雲は散在している

TAF: KLAS 200846Z 2009/2112 VRB05KT P6SM FEW250 FM201000 21006KT P6SM FEW250 FM201700 17011KT P6SM SCT250 FM201900 18015G23KT P6SM FEW120 SCT250 FM210500 22011KT P6SM SCT150 SCT250

4,000以上の空港の気象観測と天気予報(METAR報とTAF報)

利用可能な観測所は地図上に黄色い丸と赤い丸で示す。

丸の上にカーソルを重ねると観測所名を参照できる。

次にクリックすると気象観測と天気予報を参照できる。

マップの切り替え:黒色「×」印の緑ボタンをクリックして拡大、「-」印の緑ボタンをクリックして縮小、緑色の三角印をクリックして隣りの地図に切り替え


METAR-TAF: